sensor_id;sensor_type;location;lat;lon;timestamp;pressure;altitude;pressure_sealevel;temperature;humidity
49827;BME280;35715;51.570;6.036;2022-11-20T00:00:01;101226.94;;;1.12;72.09
49827;BME280;35715;51.570;6.036;2022-11-20T00:02:27;101230.00;;;1.16;72.35
49827;BME280;35715;51.570;6.036;2022-11-20T00:04:52;101227.41;;;1.23;72.34
49827;BME280;35715;51.570;6.036;2022-11-20T00:07:17;101225.53;;;1.30;72.17
49827;BME280;35715;51.570;6.036;2022-11-20T00:09:42;101219.78;;;1.23;71.65
49827;BME280;35715;51.570;6.036;2022-11-20T00:12:08;101217.78;;;1.21;71.81
49827;BME280;35715;51.570;6.036;2022-11-20T00:14:33;101221.53;;;1.09;72.57
49827;BME280;35715;51.570;6.036;2022-11-20T00:17:07;101218.47;;;1.04;72.51
49827;BME280;35715;51.570;6.036;2022-11-20T00:19:32;101226.97;;;1.04;73.10
49827;BME280;35715;51.570;6.036;2022-11-20T00:21:57;101217.91;;;1.06;72.71
49827;BME280;35715;51.570;6.036;2022-11-20T00:24:23;101217.91;;;1.06;72.68
49827;BME280;35715;51.570;6.036;2022-11-20T00:26:53;101218.13;;;1.01;72.67
49827;BME280;35715;51.570;6.036;2022-11-20T00:29:18;101212.88;;;0.99;73.05
49827;BME280;35715;51.570;6.036;2022-11-20T00:31:44;101202.72;;;0.99;72.53
49827;BME280;35715;51.570;6.036;2022-11-20T00:34:09;101204.41;;;0.92;72.97
49827;BME280;35715;51.570;6.036;2022-11-20T00:36:39;101201.53;;;0.88;73.61
49827;BME280;35715;51.570;6.036;2022-11-20T00:39:04;101204.03;;;0.96;73.50
49827;BME280;35715;51.570;6.036;2022-11-20T00:41:30;101193.94;;;0.81;74.02
49827;BME280;35715;51.570;6.036;2022-11-20T00:43:56;101189.97;;;0.83;74.02
49827;BME280;35715;51.570;6.036;2022-11-20T00:46:25;101198.34;;;0.75;74.09
49827;BME280;35715;51.570;6.036;2022-11-20T00:48:51;101198.63;;;0.85;74.21
49827;BME280;35715;51.570;6.036;2022-11-20T00:51:19;101193.22;;;0.82;73.79
49827;BME280;35715;51.570;6.036;2022-11-20T00:53:45;101197.63;;;0.76;73.97
49827;BME280;35715;51.570;6.036;2022-11-20T00:56:14;101190.00;;;0.76;73.56
49827;BME280;35715;51.570;6.036;2022-11-20T00:58:41;101187.78;;;0.79;73.24
49827;BME280;35715;51.570;6.036;2022-11-20T01:01:09;101192.06;;;0.64;73.92
49827;BME280;35715;51.570;6.036;2022-11-20T01:03:36;101187.66;;;0.70;74.35
49827;BME280;35715;51.570;6.036;2022-11-20T01:06:36;101187.13;;;0.73;73.76
49827;BME280;35715;51.570;6.036;2022-11-20T01:09:06;101181.38;;;0.60;74.44
49827;BME280;35715;51.570;6.036;2022-11-20T01:11:37;101174.06;;;0.40;75.13
49827;BME280;35715;51.570;6.036;2022-11-20T01:14:06;101176.38;;;0.45;75.28
49827;BME280;35715;51.570;6.036;2022-11-20T01:16:38;101182.72;;;0.49;75.20
49827;BME280;35715;51.570;6.036;2022-11-20T01:19:08;101171.13;;;0.44;75.47
49827;BME280;35715;51.570;6.036;2022-11-20T01:21:36;101169.72;;;0.39;75.55
49827;BME280;35715;51.570;6.036;2022-11-20T01:24:03;101169.56;;;0.30;75.48
49827;BME280;35715;51.570;6.036;2022-11-20T01:26:33;101171.03;;;0.28;75.38
49827;BME280;35715;51.570;6.036;2022-11-20T01:28:59;101162.94;;;0.16;75.83
49827;BME280;35715;51.570;6.036;2022-11-20T01:33:54;101169.16;;;0.04;75.76
49827;BME280;35715;51.570;6.036;2022-11-20T01:36:34;101164.28;;;-0.02;76.36
49827;BME280;35715;51.570;6.036;2022-11-20T01:39:03;101165.41;;;-0.07;76.82
49827;BME280;35715;51.570;6.036;2022-11-20T01:41:30;101161.81;;;-0.16;77.16
49827;BME280;35715;51.570;6.036;2022-11-20T01:44:16;101164.34;;;-0.24;77.33
49827;BME280;35715;51.570;6.036;2022-11-20T01:47:03;101166.34;;;-0.21;77.15
49827;BME280;35715;51.570;6.036;2022-11-20T01:49:41;101171.41;;;-0.21;77.23
49827;BME280;35715;51.570;6.036;2022-11-20T01:52:13;101173.03;;;-0.22;77.39
49827;BME280;35715;51.570;6.036;2022-11-20T01:57:16;101165.41;;;-0.07;77.25
49827;BME280;35715;51.570;6.036;2022-11-20T01:59:50;101164.44;;;-0.01;76.98
49827;BME280;35715;51.570;6.036;2022-11-20T02:02:17;101158.47;;;-0.01;76.71
49827;BME280;35715;51.570;6.036;2022-11-20T02:04:44;101171.34;;;0.01;77.04
49827;BME280;35715;51.570;6.036;2022-11-20T02:07:10;101164.28;;;-0.02;76.91
49827;BME280;35715;51.570;6.036;2022-11-20T02:09:35;101162.16;;;-0.13;77.11
49827;BME280;35715;51.570;6.036;2022-11-20T02:12:00;101169.06;;;-0.20;77.60
49827;BME280;35715;51.570;6.036;2022-11-20T02:14:26;101158.75;;;-0.28;77.45
49827;BME280;35715;51.570;6.036;2022-11-20T02:16:54;101167.25;;;-0.28;77.43
49827;BME280;35715;51.570;6.036;2022-11-20T02:19:28;101160.00;;;-0.32;78.03
49827;BME280;35715;51.570;6.036;2022-11-20T02:22:00;101149.69;;;-0.26;77.78
49827;BME280;35715;51.570;6.036;2022-11-20T02:24:28;101148.97;;;-0.25;77.51
49827;BME280;35715;51.570;6.036;2022-11-20T02:27:02;101161.28;;;-0.21;77.79
49827;BME280;35715;51.570;6.036;2022-11-20T02:29:42;101158.75;;;-0.21;77.76
49827;BME280;35715;51.570;6.036;2022-11-20T02:32:23;101158.91;;;-0.20;77.78
49827;BME280;35715;51.570;6.036;2022-11-20T02:34:49;101160.16;;;-0.16;77.72
49827;BME280;35715;51.570;6.036;2022-11-20T02:37:32;101164.34;;;-0.16;77.65
49827;BME280;35715;51.570;6.036;2022-11-20T02:39:59;101165.22;;;-0.16;77.62
49827;BME280;35715;51.570;6.036;2022-11-20T02:42:25;101150.22;;;-0.22;77.46
49827;BME280;35715;51.570;6.036;2022-11-20T02:44:50;101148.25;;;-0.24;77.89
49827;BME280;35715;51.570;6.036;2022-11-20T02:47:17;101156.38;;;-0.20;77.85
49827;BME280;35715;51.570;6.036;2022-11-20T02:49:43;101157.44;;;-0.17;78.12
49827;BME280;35715;51.570;6.036;2022-11-20T02:52:08;101153.28;;;-0.17;77.96
49827;BME280;35715;51.570;6.036;2022-11-20T02:54:33;101153.84;;;-0.20;77.88
49827;BME280;35715;51.570;6.036;2022-11-20T02:57:00;101161.09;;;-0.23;77.93
49827;BME280;35715;51.570;6.036;2022-11-20T02:59:25;101167.06;;;-0.22;77.94
49827;BME280;35715;51.570;6.036;2022-11-20T03:01:50;101156.75;;;-0.24;77.93
49827;BME280;35715;51.570;6.036;2022-11-20T03:04:16;101157.63;;;-0.23;77.93
49827;BME280;35715;51.570;6.036;2022-11-20T03:06:58;101160.75;;;-0.26;78.09
49827;BME280;35715;51.570;6.036;2022-11-20T03:09:24;101158.94;;;-0.27;78.16
49827;BME280;35715;51.570;6.036;2022-11-20T03:11:49;101153.69;;;-0.28;78.11
49827;BME280;35715;51.570;6.036;2022-11-20T03:14:14;101162.53;;;-0.32;78.31
49827;BME280;35715;51.570;6.036;2022-11-20T03:16:45;101156.59;;;-0.32;78.06
49827;BME280;35715;51.570;6.036;2022-11-20T03:19:11;101162.75;;;-0.38;77.99
49827;BME280;35715;51.570;6.036;2022-11-20T03:21:37;101165.13;;;-0.39;78.26
49827;BME280;35715;51.570;6.036;2022-11-20T03:24:03;101155.34;;;-0.43;78.26
49827;BME280;35715;51.570;6.036;2022-11-20T03:26:29;101160.06;;;-0.46;78.13
49827;BME280;35715;51.570;6.036;2022-11-20T03:28:57;101164.78;;;-0.49;78.17
49827;BME280;35715;51.570;6.036;2022-11-20T03:31:43;101162.25;;;-0.49;78.13
49827;BME280;35715;51.570;6.036;2022-11-20T03:34:10;101152.47;;;-0.46;78.30
49827;BME280;35715;51.570;6.036;2022-11-20T03:36:45;101149.38;;;-0.44;78.12
49827;BME280;35715;51.570;6.036;2022-11-20T03:39:11;101150.63;;;-0.47;78.35
49827;BME280;35715;51.570;6.036;2022-11-20T03:41:39;101147.38;;;-0.46;78.43
49827;BME280;35715;51.570;6.036;2022-11-20T03:44:06;101150.63;;;-0.47;78.28
49827;BME280;35715;51.570;6.036;2022-11-20T03:46:33;101148.84;;;-0.48;78.61
49827;BME280;35715;51.570;6.036;2022-11-20T03:48:59;101137.97;;;-0.47;78.77
49827;BME280;35715;51.570;6.036;2022-11-20T03:53:54;101142.84;;;-0.49;78.54
49827;BME280;35715;51.570;6.036;2022-11-20T03:56:55;101137.78;;;-0.49;78.74
49827;BME280;35715;51.570;6.036;2022-11-20T03:59:20;101141.25;;;-0.48;78.77
49827;BME280;35715;51.570;6.036;2022-11-20T04:01:46;101127.09;;;-0.39;78.69
49827;BME280;35715;51.570;6.036;2022-11-20T04:04:11;101123.28;;;-0.36;78.83
49827;BME280;35715;51.570;6.036;2022-11-20T04:06:40;101122.91;;;-0.31;78.89
49827;BME280;35715;51.570;6.036;2022-11-20T04:09:06;101112.94;;;-0.30;78.65
49827;BME280;35715;51.570;6.036;2022-11-20T04:11:33;101121.44;;;-0.29;78.48
49827;BME280;35715;51.570;6.036;2022-11-20T04:14:04;101131.22;;;-0.25;78.21
49827;BME280;35715;51.570;6.036;2022-11-20T04:16:35;101121.44;;;-0.29;78.28
49827;BME280;35715;51.570;6.036;2022-11-20T04:19:03;101119.09;;;-0.35;78.52
49827;BME280;35715;51.570;6.036;2022-11-20T04:21:29;101119.31;;;-0.41;79.04
49827;BME280;35715;51.570;6.036;2022-11-20T04:23:55;101118.19;;;-0.36;78.88
49827;BME280;35715;51.570;6.036;2022-11-20T04:26:31;101116.03;;;-0.32;79.18
49827;BME280;35715;51.570;6.036;2022-11-20T04:28:58;101113.47;;;-0.32;79.21
49827;BME280;35715;51.570;6.036;2022-11-20T04:31:26;101115.28;;;-0.24;79.25
49827;BME280;35715;51.570;6.036;2022-11-20T04:33:52;101114.00;;;-0.21;79.16
49827;BME280;35715;51.570;6.036;2022-11-20T04:39:16;101114.16;;;-0.12;79.66
49827;BME280;35715;51.570;6.036;2022-11-20T04:41:42;101111.03;;;-0.09;79.40
49827;BME280;35715;51.570;6.036;2022-11-20T04:44:07;101109.78;;;-0.06;79.29
49827;BME280;35715;51.570;6.036;2022-11-20T04:46:35;101110.66;;;-0.05;79.01
49827;BME280;35715;51.570;6.036;2022-11-20T04:49:01;101109.25;;;-0.10;78.71
49827;BME280;35715;51.570;6.036;2022-11-20T04:51:26;101109.41;;;-0.09;79.17
49827;BME280;35715;51.570;6.036;2022-11-20T04:53:52;101111.22;;;-0.08;79.05
49827;BME280;35715;51.570;6.036;2022-11-20T04:56:24;101108.13;;;-0.05;79.04
49827;BME280;35715;51.570;6.036;2022-11-20T04:58:50;101105.03;;;-0.03;78.87
49827;BME280;35715;51.570;6.036;2022-11-20T05:01:20;101108.09;;;0.02;79.28
49827;BME280;35715;51.570;6.036;2022-11-20T05:03:46;101098.84;;;0.03;78.97
49827;BME280;35715;51.570;6.036;2022-11-20T05:06:17;101096.16;;;-0.06;78.90
49827;BME280;35715;51.570;6.036;2022-11-20T05:08:43;101102.88;;;-0.07;79.05
49827;BME280;35715;51.570;6.036;2022-11-20T05:11:10;101104.53;;;-0.07;79.20
49827;BME280;35715;51.570;6.036;2022-11-20T05:13:36;101102.19;;;-0.13;79.22
49827;BME280;35715;51.570;6.036;2022-11-20T05:16:30;101098.41;;;-0.16;78.99
49827;BME280;35715;51.570;6.036;2022-11-20T05:18:59;101102.44;;;-0.26;79.33
49827;BME280;35715;51.570;6.036;2022-11-20T05:21:24;101098.63;;;-0.29;79.74
49827;BME280;35715;51.570;6.036;2022-11-20T05:23:49;101102.22;;;-0.27;80.42
49827;BME280;35715;51.570;6.036;2022-11-20T05:26:34;101095.00;;;-0.24;80.63
49827;BME280;35715;51.570;6.036;2022-11-20T05:29:00;101090.63;;;-0.18;80.36
49827;BME280;35715;51.570;6.036;2022-11-20T05:31:25;101078.50;;;-0.21;80.17
49827;BME280;35715;51.570;6.036;2022-11-20T05:33:50;101083.03;;;-0.25;80.23
49827;BME280;35715;51.570;6.036;2022-11-20T05:36:36;101080.00;;;-0.37;81.09
49827;BME280;35715;51.570;6.036;2022-11-20T05:39:01;101077.47;;;-0.37;81.19
49827;BME280;35715;51.570;6.036;2022-11-20T05:41:27;101080.91;;;-0.37;81.53
49827;BME280;35715;51.570;6.036;2022-11-20T05:43:52;101077.84;;;-0.41;81.90
49827;BME280;35715;51.570;6.036;2022-11-20T05:46:34;101069.00;;;-0.45;83.08
49827;BME280;35715;51.570;6.036;2022-11-20T05:48:59;101069.88;;;-0.44;83.15
49827;BME280;35715;51.570;6.036;2022-11-20T05:51:25;101077.13;;;-0.40;83.25
49827;BME280;35715;51.570;6.036;2022-11-20T05:53:51;101076.94;;;-0.42;82.93
49827;BME280;35715;51.570;6.036;2022-11-20T05:56:23;101076.22;;;-0.41;82.79
49827;BME280;35715;51.570;6.036;2022-11-20T05:58:49;101075.88;;;-0.44;82.18
49827;BME280;35715;51.570;6.036;2022-11-20T06:01:21;101087.28;;;-0.47;81.78
49827;BME280;35715;51.570;6.036;2022-11-20T06:03:47;101081.50;;;-0.54;81.66
49827;BME280;35715;51.570;6.036;2022-11-20T06:06:17;101084.41;;;-0.58;81.14
49827;BME280;35715;51.570;6.036;2022-11-20T06:08:43;101078.97;;;-0.61;81.07
49827;BME280;35715;51.570;6.036;2022-11-20T06:11:11;101082.09;;;-0.70;80.74
49827;BME280;35715;51.570;6.036;2022-11-20T06:13:37;101078.31;;;-0.74;80.65
49827;BME280;35715;51.570;6.036;2022-11-20T06:16:07;101078.84;;;-0.77;80.63
49827;BME280;35715;51.570;6.036;2022-11-20T06:18:32;101087.91;;;-0.79;80.61
49827;BME280;35715;51.570;6.036;2022-11-20T06:21:03;101094.94;;;-0.83;80.92
49827;BME280;35715;51.570;6.036;2022-11-20T06:23:30;101097.13;;;-0.86;80.70
49827;BME280;35715;51.570;6.036;2022-11-20T06:26:09;101099.31;;;-0.90;80.74
49827;BME280;35715;51.570;6.036;2022-11-20T06:28:35;101098.22;;;-0.92;80.68
49827;BME280;35715;51.570;6.036;2022-11-20T06:31:00;101099.13;;;-0.91;80.77
49827;BME280;35715;51.570;6.036;2022-11-20T06:33:26;101098.94;;;-0.93;80.81
49827;BME280;35715;51.570;6.036;2022-11-20T06:36:01;101099.88;;;-0.92;80.61
49827;BME280;35715;51.570;6.036;2022-11-20T06:38:27;101103.28;;;-0.92;80.89
49827;BME280;35715;51.570;6.036;2022-11-20T06:40:53;101094.63;;;-0.94;80.71
49827;BME280;35715;51.570;6.036;2022-11-20T06:43:20;101103.66;;;-0.96;80.67
49827;BME280;35715;51.570;6.036;2022-11-20T06:45:57;101106.94;;;-0.97;80.88
49827;BME280;35715;51.570;6.036;2022-11-20T06:48:23;101108.19;;;-0.93;80.98
49827;BME280;35715;51.570;6.036;2022-11-20T06:50:49;101112.72;;;-0.91;80.86
49827;BME280;35715;51.570;6.036;2022-11-20T06:53:15;101109.44;;;-0.90;80.90
49827;BME280;35715;51.570;6.036;2022-11-20T06:55:48;101104.75;;;-0.94;80.58
49827;BME280;35715;51.570;6.036;2022-11-20T06:58:15;101100.22;;;-0.96;80.59
49827;BME280;35715;51.570;6.036;2022-11-20T07:00:41;101097.50;;;-0.98;80.57
49827;BME280;35715;51.570;6.036;2022-11-20T07:03:08;101101.50;;;-1.00;80.33
49827;BME280;35715;51.570;6.036;2022-11-20T07:05:36;101104.22;;;-0.98;80.93
49827;BME280;35715;51.570;6.036;2022-11-20T07:08:02;101111.81;;;-0.98;80.65
49827;BME280;35715;51.570;6.036;2022-11-20T07:10:28;101109.47;;;-0.97;80.64
49827;BME280;35715;51.570;6.036;2022-11-20T07:12:54;101102.41;;;-0.99;80.93
49827;BME280;35715;51.570;6.036;2022-11-20T07:15:44;101110.19;;;-0.98;81.14
49827;BME280;35715;51.570;6.036;2022-11-20T07:18:09;101112.00;;;-0.97;81.18
49827;BME280;35715;51.570;6.036;2022-11-20T07:20:35;101119.38;;;-0.91;81.60
49827;BME280;35715;51.570;6.036;2022-11-20T07:23:00;101113.78;;;-0.81;81.41
49827;BME280;35715;51.570;6.036;2022-11-20T07:25:28;101101.28;;;-0.80;81.14
49827;BME280;35715;51.570;6.036;2022-11-20T07:28:00;101109.44;;;-0.68;81.14
49827;BME280;35715;51.570;6.036;2022-11-20T07:30:26;101111.38;;;-0.58;81.55
49827;BME280;35715;51.570;6.036;2022-11-20T07:32:53;101116.25;;;-0.52;81.08
49827;BME280;35715;51.570;6.036;2022-11-20T07:35:34;101102.84;;;-0.44;80.63
49827;BME280;35715;51.570;6.036;2022-11-20T07:38:00;101102.28;;;-0.42;80.70
49827;BME280;35715;51.570;6.036;2022-11-20T07:40:26;101101.34;;;-0.35;80.72
49827;BME280;35715;51.570;6.036;2022-11-20T07:42:53;101094.44;;;-0.29;80.57
49827;BME280;35715;51.570;6.036;2022-11-20T07:45:22;101093.00;;;-0.27;80.86
49827;BME280;35715;51.570;6.036;2022-11-20T07:47:48;101092.81;;;-0.21;81.06
49827;BME280;35715;51.570;6.036;2022-11-20T07:50:14;101090.91;;;-0.08;81.45
49827;BME280;35715;51.570;6.036;2022-11-20T07:52:40;101093.78;;;0.03;81.77
49827;BME280;35715;51.570;6.036;2022-11-20T07:55:21;101096.25;;;0.17;81.72
49827;BME280;35715;51.570;6.036;2022-11-20T07:57:54;101096.75;;;0.22;81.28
49827;BME280;35715;51.570;6.036;2022-11-20T08:00:20;101101.44;;;0.26;81.30
49827;BME280;35715;51.570;6.036;2022-11-20T08:02:45;101095.94;;;0.37;81.55
49827;BME280;35715;51.570;6.036;2022-11-20T08:05:10;101090.41;;;0.48;81.94
49827;BME280;35715;51.570;6.036;2022-11-20T08:07:40;101090.16;;;0.61;81.85
49827;BME280;35715;51.570;6.036;2022-11-20T08:10:07;101091.00;;;0.69;81.68
49827;BME280;35715;51.570;6.036;2022-11-20T08:12:33;101088.06;;;0.73;81.41
49827;BME280;35715;51.570;6.036;2022-11-20T08:15:18;101086.22;;;0.79;81.59
49827;BME280;35715;51.570;6.036;2022-11-20T08:17:44;101089.97;;;0.83;81.57
49827;BME280;35715;51.570;6.036;2022-11-20T08:20:10;101088.44;;;0.92;81.80
49827;BME280;35715;51.570;6.036;2022-11-20T08:22:35;101090.59;;;0.96;81.59
49827;BME280;35715;51.570;6.036;2022-11-20T08:25:05;101088.38;;;0.99;81.52
49827;BME280;35715;51.570;6.036;2022-11-20T08:27:31;101090.53;;;1.03;81.86
49827;BME280;35715;51.570;6.036;2022-11-20T08:29:57;101091.59;;;1.05;81.80
49827;BME280;35715;51.570;6.036;2022-11-20T08:32:22;101088.16;;;1.05;81.60
49827;BME280;35715;51.570;6.036;2022-11-20T08:34:47;101083.25;;;1.06;81.57
49827;BME280;35715;51.570;6.036;2022-11-20T08:37:13;101083.34;;;1.15;81.77
49827;BME280;35715;51.570;6.036;2022-11-20T08:39:38;101072.84;;;1.12;81.22
49827;BME280;35715;51.570;6.036;2022-11-20T08:42:07;101065.28;;;1.21;81.11
49827;BME280;35715;51.570;6.036;2022-11-20T08:44:32;101066.94;;;1.20;80.91
49827;BME280;35715;51.570;6.036;2022-11-20T08:47:11;101075.28;;;1.19;80.96
49827;BME280;35715;51.570;6.036;2022-11-20T08:49:36;101069.81;;;1.23;81.32
49827;BME280;35715;51.570;6.036;2022-11-20T08:52:02;101074.00;;;1.39;81.68
49827;BME280;35715;51.570;6.036;2022-11-20T08:54:27;101074.66;;;1.45;81.84
49827;BME280;35715;51.570;6.036;2022-11-20T08:56:53;101066.31;;;1.46;81.89
49827;BME280;35715;51.570;6.036;2022-11-20T08:59:19;101063.19;;;1.65;81.95
49827;BME280;35715;51.570;6.036;2022-11-20T09:01:44;101065.31;;;1.85;81.60
49827;BME280;35715;51.570;6.036;2022-11-20T09:04:09;101069.47;;;1.84;81.64
49827;BME280;35715;51.570;6.036;2022-11-20T09:06:36;101065.34;;;1.93;81.98
49827;BME280;35715;51.570;6.036;2022-11-20T09:09:02;101059.84;;;1.98;82.54
49827;BME280;35715;51.570;6.036;2022-11-20T09:11:28;101060.03;;;1.99;82.54
49827;BME280;35715;51.570;6.036;2022-11-20T09:13:53;101053.75;;;2.04;82.29
49827;BME280;35715;51.570;6.036;2022-11-20T09:16:22;101056.75;;;2.00;82.34
49827;BME280;35715;51.570;6.036;2022-11-20T09:18:49;101054.53;;;2.03;82.67
49827;BME280;35715;51.570;6.036;2022-11-20T09:21:15;101056.03;;;2.10;83.18
49827;BME280;35715;51.570;6.036;2022-11-20T09:23:41;101061.78;;;2.16;83.00
49827;BME280;35715;51.570;6.036;2022-11-20T09:26:29;101057.78;;;2.27;83.14
49827;BME280;35715;51.570;6.036;2022-11-20T09:28:54;101045.91;;;2.43;83.12
49827;BME280;35715;51.570;6.036;2022-11-20T09:31:25;101040.28;;;2.55;82.59
49827;BME280;35715;51.570;6.036;2022-11-20T09:33:51;101044.16;;;2.51;81.06
49827;BME280;35715;51.570;6.036;2022-11-20T09:36:16;101037.44;;;2.60;81.34
49827;BME280;35715;51.570;6.036;2022-11-20T09:38:46;101038.41;;;2.70;81.48
49827;BME280;35715;51.570;6.036;2022-11-20T09:55:58;101022.81;;;2.75;80.66
49827;BME280;35715;51.570;6.036;2022-11-20T09:58:38;101019.75;;;2.87;81.30
49827;BME280;35715;51.570;6.036;2022-11-20T10:01:14;101023.78;;;2.93;81.30
49827;BME280;35715;51.570;6.036;2022-11-20T10:04:00;101021.44;;;3.04;81.38
49827;BME280;35715;51.570;6.036;2022-11-20T10:09:04;101008.88;;;3.23;81.24
49827;BME280;35715;51.570;6.036;2022-11-20T10:12:02;101019.06;;;3.31;81.20
49827;BME280;35715;51.570;6.036;2022-11-20T10:17:31;101008.25;;;3.25;81.50
49827;BME280;35715;51.570;6.036;2022-11-20T10:20:40;101019.84;;;3.30;81.64
49827;BME280;35715;51.570;6.036;2022-11-20T10:29:15;100999.59;;;3.32;81.58
49827;BME280;35715;51.570;6.036;2022-11-20T10:31:51;100996.41;;;3.34;81.71
49827;BME280;35715;51.570;6.036;2022-11-20T10:34:38;100992.38;;;3.36;81.39
49827;BME280;35715;51.570;6.036;2022-11-20T10:37:24;100980.69;;;3.38;81.63
49827;BME280;35715;51.570;6.036;2022-11-20T10:42:38;100975.13;;;3.43;82.23
49827;BME280;35715;51.570;6.036;2022-11-20T10:48:56;100946.63;;;3.38;82.23
49827;BME280;35715;51.570;6.036;2022-11-20T10:56:54;100927.25;;;3.58;82.83
49827;BME280;35715;51.570;6.036;2022-11-20T10:59:38;100933.69;;;3.54;83.43
49827;BME280;35715;51.570;6.036;2022-11-20T11:04:46;100923.97;;;3.41;84.80
49827;BME280;35715;51.570;6.036;2022-11-20T11:07:19;100909.25;;;3.30;85.73
49827;BME280;35715;51.570;6.036;2022-11-20T11:09:56;100911.06;;;3.31;86.67
49827;BME280;35715;51.570;6.036;2022-11-20T11:12:24;100901.31;;;3.35;86.49
49827;BME280;35715;51.570;6.036;2022-11-20T11:14:52;100894.09;;;3.49;86.72
49827;BME280;35715;51.570;6.036;2022-11-20T11:22:50;100882.88;;;3.47;87.09
49827;BME280;35715;51.570;6.036;2022-11-20T11:25:36;100880.63;;;3.50;87.18
49827;BME280;35715;51.570;6.036;2022-11-20T11:28:20;100863.50;;;3.40;87.96
49827;BME280;35715;51.570;6.036;2022-11-20T11:30:46;100861.53;;;3.55;88.00
49827;BME280;35715;51.570;6.036;2022-11-20T11:33:29;100859.72;;;3.54;89.07
49827;BME280;35715;51.570;6.036;2022-11-20T11:36:02;100865.53;;;3.70;88.22
49827;BME280;35715;51.570;6.036;2022-11-20T11:38:30;100854.56;;;3.80;87.62
49827;BME280;35715;51.570;6.036;2022-11-20T11:40:57;100856.47;;;3.91;87.59
49827;BME280;35715;51.570;6.036;2022-11-20T11:43:25;100856.00;;;3.96;86.68
49827;BME280;35715;51.570;6.036;2022-11-20T11:46:30;100851.03;;;3.97;86.55
49827;BME280;35715;51.570;6.036;2022-11-20T11:54:36;100841.38;;;4.12;86.57
49827;BME280;35715;51.570;6.036;2022-11-20T11:57:11;100830.25;;;4.12;87.14
49827;BME280;35715;51.570;6.036;2022-11-20T12:02:35;100838.16;;;4.23;87.19
49827;BME280;35715;51.570;6.036;2022-11-20T12:08:15;100836.84;;;4.18;86.37
49827;BME280;35715;51.570;6.036;2022-11-20T12:10:56;100825.97;;;4.21;86.35
49827;BME280;35715;51.570;6.036;2022-11-20T12:13:39;100835.78;;;4.16;86.19
49827;BME280;35715;51.570;6.036;2022-11-20T12:16:12;100841.47;;;4.22;86.17
49827;BME280;35715;51.570;6.036;2022-11-20T12:18:38;100813.84;;;4.18;86.51
49827;BME280;35715;51.570;6.036;2022-11-20T12:21:20;100825.69;;;4.18;87.29
49827;BME280;35715;51.570;6.036;2022-11-20T12:32:56;100780.66;;;4.18;89.53
49827;BME280;35715;51.570;6.036;2022-11-20T12:38:42;100772.22;;;4.19;90.69
49827;BME280;35715;51.570;6.036;2022-11-20T12:47:37;100749.72;;;4.15;91.13
49827;BME280;35715;51.570;6.036;2022-11-20T12:59:10;100736.47;;;4.19;92.59
49827;BME280;35715;51.570;6.036;2022-11-20T13:01:55;100730.34;;;4.17;93.37
49827;BME280;35715;51.570;6.036;2022-11-20T13:04:54;100715.56;;;4.04;94.25
49827;BME280;35715;51.570;6.036;2022-11-20T13:07:21;100708.94;;;4.06;94.51
49827;BME280;35715;51.570;6.036;2022-11-20T13:09:49;100696.22;;;3.98;95.32
49827;BME280;35715;51.570;6.036;2022-11-20T13:12:22;100712.19;;;3.95;95.71
49827;BME280;35715;51.570;6.036;2022-11-20T13:14:53;100698.44;;;4.03;95.83
49827;BME280;35715;51.570;6.036;2022-11-20T13:20:16;100689.94;;;4.13;96.26
49827;BME280;35715;51.570;6.036;2022-11-20T13:22:47;100683.16;;;4.22;96.01
49827;BME280;35715;51.570;6.036;2022-11-20T13:27:54;100674.16;;;4.17;98.01
49827;BME280;35715;51.570;6.036;2022-11-20T13:30:21;100673.41;;;4.18;98.80
49827;BME280;35715;51.570;6.036;2022-11-20T13:33:08;100659.84;;;4.19;99.49
49827;BME280;35715;51.570;6.036;2022-11-20T13:35:41;100662.41;;;4.19;98.84
49827;BME280;35715;51.570;6.036;2022-11-20T13:38:10;100652.19;;;4.19;99.07
49827;BME280;35715;51.570;6.036;2022-11-20T13:40:38;100644.91;;;4.14;99.33
49827;BME280;35715;51.570;6.036;2022-11-20T13:43:22;100642.81;;;4.09;99.93
49827;BME280;35715;51.570;6.036;2022-11-20T13:46:07;100634.41;;;4.11;100.00
49827;BME280;35715;51.570;6.036;2022-11-20T13:48:38;100635.31;;;4.11;100.00
49827;BME280;35715;51.570;6.036;2022-11-20T13:54:20;100633.38;;;4.08;100.00
49827;BME280;35715;51.570;6.036;2022-11-20T14:00:16;100608.63;;;4.07;100.00
49827;BME280;35715;51.570;6.036;2022-11-20T14:02:44;100602.72;;;4.08;100.00
49827;BME280;35715;51.570;6.036;2022-11-20T14:05:22;100592.09;;;4.04;100.00
49827;BME280;35715;51.570;6.036;2022-11-20T14:07:49;100588.19;;;4.07;100.00
49827;BME280;35715;51.570;6.036;2022-11-20T14:10:29;100582.81;;;4.04;100.00
49827;BME280;35715;51.570;6.036;2022-11-20T14:12:55;100587.69;;;4.12;100.00
49827;BME280;35715;51.570;6.036;2022-11-20T14:15:35;100579.63;;;4.07;100.00
49827;BME280;35715;51.570;6.036;2022-11-20T14:18:14;100563.97;;;4.13;100.00
49827;BME280;35715;51.570;6.036;2022-11-20T14:20:41;100558.84;;;4.13;100.00
49827;BME280;35715;51.570;6.036;2022-11-20T14:23:09;100556.44;;;4.14;100.00
49827;BME280;35715;51.570;6.036;2022-11-20T14:25:35;100552.34;;;4.16;100.00
49827;BME280;35715;51.570;6.036;2022-11-20T14:28:02;100560.91;;;4.17;100.00
49827;BME280;35715;51.570;6.036;2022-11-20T14:30:38;100553.53;;;4.20;100.00
49827;BME280;35715;51.570;6.036;2022-11-20T14:33:10;100545.91;;;4.30;100.00
49827;BME280;35715;51.570;6.036;2022-11-20T14:35:42;100552.66;;;4.30;100.00
49827;BME280;35715;51.570;6.036;2022-11-20T14:38:12;100543.38;;;4.30;100.00
49827;BME280;35715;51.570;6.036;2022-11-20T14:40:38;100529.69;;;4.30;100.00
49827;BME280;35715;51.570;6.036;2022-11-20T14:43:25;100537.00;;;4.35;100.00
49827;BME280;35715;51.570;6.036;2022-11-20T14:46:10;100528.56;;;4.36;100.00
49827;BME280;35715;51.570;6.036;2022-11-20T14:48:54;100526.28;;;4.39;100.00
49827;BME280;35715;51.570;6.036;2022-11-20T14:51:38;100516.69;;;4.37;100.00
49827;BME280;35715;51.570;6.036;2022-11-20T14:54:20;100509.66;;;4.34;100.00
49827;BME280;35715;51.570;6.036;2022-11-20T14:57:03;100512.09;;;4.43;100.00
49827;BME280;35715;51.570;6.036;2022-11-20T14:59:31;100503.56;;;4.42;100.00